Time;durP1;ratioP1;P1;durP2;ratioP2;P2;SDS_P1;SDS_P2;PMS_P1;PMS_P2;Temp;Humidity;BMP_temperature;BMP_pressure;BME280_temperature;BME280_humidity;BME280_pressure;Samples;Min_cycle;Max_cycle;Signal;HPM_P1;HPM_P2
2022/12/18 00:01:28;;;;;;;30.47;18.73;;;-5.50;45.20;;;;;;20911;6739;117591;-75
2022/12/18 00:04:05;;;;;;;37.57;19.63;;;-5.70;45.70;;;;;;20878;6739;118109;-75
2022/12/18 00:06:40;;;;;;;43.73;29.27;;;-5.80;46.00;;;;;;20741;6726;307084;-74
2022/12/18 00:09:18;;;;;;;42.88;30.70;;;-5.40;44.90;;;;;;20742;6725;306997;-75
2022/12/18 00:11:54;;;;;;;45.95;31.27;;;-5.40;44.80;;;;;;20696;6740;279157;-75
2022/12/18 00:14:29;;;;;;;46.67;31.70;;;-5.10;43.70;;;;;;20636;6738;280081;-75
2022/12/18 00:17:05;;;;;;;47.97;32.73;;;-4.70;42.00;;;;;;20758;6716;276198;-75
2022/12/18 00:19:41;;;;;;;40.17;23.77;;;-4.70;41.90;;;;;;20968;6729;67627;-75
2022/12/18 00:22:17;;;;;;;46.40;22.23;;;-4.90;42.10;;;;;;20954;6724;117543;-75
2022/12/18 00:24:52;;;;;;;37.93;20.67;;;-5.20;42.80;;;;;;20830;6726;117287;-76
2022/12/18 00:27:28;;;;;;;44.37;28.93;;;-5.40;43.50;;;;;;20746;6726;276239;-75
2022/12/18 00:30:05;;;;;;;39.33;22.70;;;-5.50;43.50;;;;;;20915;6739;117274;-75
2022/12/18 00:32:40;;;;;;;43.77;29.77;;;-5.50;43.50;;;;;;20683;6742;340021;-75
2022/12/18 00:35:16;;;;;;;41.22;29.60;;;-5.50;43.10;;;;;;20606;6725;337176;-75
2022/12/18 00:37:52;;;;;;;43.17;30.60;;;-5.20;41.60;;;;;;20693;6733;277312;-73
2022/12/18 00:40:29;;;;;;;41.53;28.83;;;-5.20;41.60;;;;;;20688;6739;276301;-73
2022/12/18 00:43:05;;;;;;;34.90;21.30;;;-5.10;41.20;;;;;;20887;6739;117556;-74
2022/12/18 00:45:41;;;;;;;33.63;18.53;;;-5.20;41.60;;;;;;20749;6741;117806;-73
2022/12/18 00:48:16;;;;;;;40.17;27.93;;;-5.50;42.20;;;;;;20647;6741;280862;-74
2022/12/18 00:50:51;;;;;;;41.15;29.27;;;-5.60;42.60;;;;;;20589;6765;337278;-75
2022/12/18 00:53:27;;;;;;;34.17;21.80;;;-5.40;42.20;;;;;;20930;6736;118334;-74
2022/12/18 00:56:03;;;;;;;35.60;19.33;;;-5.40;42.30;;;;;;20674;6814;117798;-73
2022/12/18 00:58:41;;;;;;;39.50;28.07;;;-5.70;42.60;;;;;;20688;6728;307125;-74
2022/12/18 01:01:14;;;;;;;34.77;21.23;;;-5.70;42.50;;;;;;20918;6729;118131;-74
2022/12/18 01:03:49;;;;;;;31.27;18.37;;;-5.80;42.50;;;;;;20928;6729;118110;-74
2022/12/18 01:06:26;;;;;;;40.83;28.23;;;-5.90;43.40;;;;;;20723;6729;306684;-73
2022/12/18 01:09:03;;;;;;;35.20;20.90;;;-6.00;43.30;;;;;;20912;6731;117454;-74
2022/12/18 01:11:39;;;;;;;40.50;28.10;;;-5.90;43.30;;;;;;20727;6731;337213;-74
2022/12/18 01:14:14;;;;;;;44.37;29.90;;;-5.90;42.60;;;;;;20683;6731;313277;-74
2022/12/18 01:16:51;;;;;;;33.97;20.83;;;-5.70;41.60;;;;;;20861;6753;117509;-74
2022/12/18 01:19:27;;;;;;;41.75;27.52;;;-5.70;41.70;;;;;;20630;6764;312364;-74
2022/12/18 01:22:03;;;;;;;31.83;20.40;;;-5.70;41.90;;;;;;20868;6754;117870;-74
2022/12/18 01:24:41;;;;;;;39.33;27.60;;;-5.70;42.30;;;;;;20579;6754;309544;-74
2022/12/18 01:27:13;;;;;;;34.53;21.17;;;-5.70;42.60;;;;;;20890;6733;120551;-74
2022/12/18 01:29:49;;;;;;;31.80;19.47;;;-5.70;42.70;;;;;;20968;6721;117469;-74
2022/12/18 01:32:25;;;;;;;39.77;27.33;;;-5.90;43.10;;;;;;20730;6720;306172;-74
2022/12/18 01:35:01;;;;;;;32.17;20.70;;;-5.90;43.00;;;;;;20832;6730;119771;-74
2022/12/18 01:37:36;;;;;;;31.20;19.53;;;-5.90;43.10;;;;;;20863;6764;118145;-74
2022/12/18 01:40:12;;;;;;;37.95;25.52;;;-6.00;43.40;;;;;;20666;6750;306782;-74
2022/12/18 01:42:50;;;;;;;39.00;21.07;;;-6.00;43.20;;;;;;20891;6741;145240;-74
2022/12/18 01:45:27;;;;;;;29.83;17.93;;;-6.10;43.50;;;;;;20808;6731;118259;-74
2022/12/18 01:48:02;;;;;;;32.30;17.23;;;-6.10;43.50;;;;;;20898;6748;117941;-74
2022/12/18 01:50:41;;;;;;;29.27;17.60;;;-6.30;44.50;;;;;;20876;6763;118414;-74
2022/12/18 01:53:19;;;;;;;39.33;26.87;;;-6.40;44.40;;;;;;20661;6752;305923;-74
2022/12/18 01:55:55;;;;;;;32.97;20.33;;;-6.30;44.40;;;;;;20679;6761;118244;-75
2022/12/18 01:59:04;;;;;;;26.13;18.43;;;-6.30;44.40;;;;;;20894;6734;117435;-74
2022/12/18 02:01:43;;;;;;;30.10;17.20;;;-6.40;44.60;;;;;;20863;6749;117521;-75
2022/12/18 02:04:22;;;;;;;38.50;26.60;;;-6.50;45.00;;;;;;20655;6737;279693;-75
2022/12/18 02:06:58;;;;;;;38.83;27.17;;;-6.40;45.40;;;;;;20675;6751;306536;-76
2022/12/18 02:09:46;;;;;;;32.43;20.83;;;-6.10;43.70;;;;;;20967;6734;117210;-73
2022/12/18 02:12:35;;;;;;;28.93;16.93;;;-6.10;43.50;;;;;;20923;6730;118319;-74
2022/12/18 02:15:18;;;;;;;39.25;26.58;;;-6.20;44.30;;;;;;19482;6835;308378;-74
2022/12/18 02:17:56;;;;;;;38.75;27.17;;;-6.20;43.80;;;;;;20654;6751;342154;-74
2022/12/18 02:20:32;;;;;;;31.70;19.93;;;-5.90;42.80;;;;;;20970;6718;117910;-74
2022/12/18 02:23:44;;;;;;;33.70;25.47;;;-5.90;42.80;;;;;;20703;6718;276860;-74
2022/12/18 02:26:26;;;;;;;27.27;17.63;;;-5.90;42.80;;;;;;20930;6733;118315;-75
2022/12/18 02:29:05;;;;;;;27.40;17.70;;;-6.00;42.90;;;;;;20889;6732;118472;-74
2022/12/18 02:31:47;;;;;;;26.83;16.83;;;-6.20;43.40;;;;;;20908;6738;117307;-74
2022/12/18 02:34:23;;;;;;;34.63;25.90;;;-6.40;43.90;;;;;;20629;6738;338475;-73
2022/12/18 02:36:58;;;;;;;35.70;26.42;;;-6.30;43.90;;;;;;20696;6738;306906;-74
2022/12/18 02:39:34;;;;;;;28.17;18.87;;;-6.10;43.00;;;;;;20872;6749;118299;-73
2022/12/18 02:42:12;;;;;;;27.93;16.83;;;-6.10;42.80;;;;;;20881;6749;117572;-73
2022/12/18 02:44:45;;;;;;;34.73;25.00;;;-6.20;43.30;;;;;;20579;6749;309622;-75
2022/12/18 02:47:21;;;;;;;36.05;25.92;;;-6.20;43.30;;;;;;20720;6729;277442;-74
2022/12/18 02:50:09;;;;;;;28.53;19.00;;;-6.00;42.50;;;;;;20860;6752;117933;-74
2022/12/18 02:53:02;;;;;;;27.33;16.87;;;-6.10;42.30;;;;;;20847;6753;117865;-75
2022/12/18 02:56:11;;;;;;;28.80;15.47;;;-6.50;43.50;;;;;;20682;6773;118090;-73
2022/12/18 02:58:47;;;;;;;33.88;25.23;;;-6.50;43.50;;;;;;20629;6735;316934;-74
2022/12/18 03:01:43;;;;;;;28.07;18.63;;;-6.40;43.60;;;;;;20872;6749;121814;-73
2022/12/18 03:04:38;;;;;;;32.60;25.35;;;-6.30;43.60;;;;;;20670;6729;308756;-74
2022/12/18 03:07:23;;;;;;;29.50;19.07;;;-6.10;43.60;;;;;;20932;6725;117143;-73
2022/12/18 03:09:56;;;;;;;29.27;16.80;;;-6.20;43.40;;;;;;20887;6796;117410;-73
2022/12/18 03:12:36;;;;;;;26.70;15.90;;;-6.30;43.80;;;;;;20909;6741;118578;-73
2022/12/18 03:15:14;;;;;;;34.65;24.52;;;-6.50;44.20;;;;;;20538;6743;309073;-74
2022/12/18 03:17:57;;;;;;;34.03;25.90;;;-6.40;44.30;;;;;;20717;6731;306261;-73
2022/12/18 03:20:35;;;;;;;30.37;18.70;;;-6.10;43.30;;;;;;20386;6789;124182;-73
2022/12/18 03:23:11;;;;;;;24.67;16.40;;;-6.10;43.00;;;;;;20863;6756;122686;-73
2022/12/18 03:25:49;;;;;;;33.20;25.62;;;-6.20;43.50;;;;;;20523;6746;283337;-73
2022/12/18 03:28:24;;;;;;;34.10;26.10;;;-6.00;43.30;;;;;;20710;6735;308197;-72
2022/12/18 03:31:01;;;;;;;31.67;19.77;;;-6.00;42.70;;;;;;20950;6719;120641;-73
2022/12/18 03:33:39;;;;;;;34.03;25.67;;;-6.00;42.70;;;;;;20788;6721;304658;-73
2022/12/18 03:36:16;;;;;;;31.90;20.13;;;-6.00;42.80;;;;;;20984;6721;117283;-73
2022/12/18 03:38:53;;;;;;;35.97;26.83;;;-6.00;42.70;;;;;;20675;6740;336244;-75
2022/12/18 03:41:29;;;;;;;35.47;26.47;;;-5.80;42.90;;;;;;20704;6746;317373;-73
2022/12/18 03:44:08;;;;;;;33.53;25.85;;;-5.80;42.20;;;;;;20601;6764;338111;-72
2022/12/18 03:47:07;;;;;;;30.60;20.40;;;-5.60;41.80;;;;;;20871;6752;119912;-73
2022/12/18 03:49:55;;;;;;;26.20;17.50;;;-5.70;41.80;;;;;;20815;6788;122205;-73
2022/12/18 03:52:34;;;;;;;26.50;16.70;;;-6.00;42.50;;;;;;20965;6736;117460;-73
2022/12/18 03:55:10;;;;;;;35.73;26.23;;;-6.30;43.10;;;;;;20579;6739;309959;-73
2022/12/18 03:57:45;;;;;;;37.67;27.37;;;-6.30;43.60;;;;;;20760;6723;305845;-73
2022/12/18 04:00:21;;;;;;;28.73;20.10;;;-6.00;42.70;;;;;;20903;6738;117181;-73
2022/12/18 04:02:57;;;;;;;31.43;18.33;;;-6.00;42.40;;;;;;20863;6739;117856;-73
2022/12/18 04:05:34;;;;;;;31.63;18.00;;;-6.20;42.80;;;;;;20700;6760;117843;-73
2022/12/18 04:08:09;;;;;;;28.40;17.30;;;-6.40;43.30;;;;;;20882;6748;117475;-73
2022/12/18 04:10:45;;;;;;;26.97;16.67;;;-6.60;43.90;;;;;;20881;6746;117903;-74
2022/12/18 04:13:30;;;;;;;37.27;26.40;;;-6.70;44.30;;;;;;20692;6739;309082;-73
2022/12/18 04:16:05;;;;;;;31.83;18.93;;;-6.70;44.50;;;;;;20695;6798;117825;-73
2022/12/18 04:18:42;;;;;;;29.83;17.57;;;-6.60;44.40;;;;;;20845;6741;117334;-73
2022/12/18 04:21:17;;;;;;;27.67;16.20;;;-6.70;44.40;;;;;;20905;6727;121810;-72
2022/12/18 04:23:53;;;;;;;38.88;27.23;;;-6.90;44.70;;;;;;20644;6735;306660;-72
2022/12/18 04:26:29;;;;;;;45.03;29.23;;;-6.80;45.00;;;;;;20642;6751;277799;-73
2022/12/18 04:29:07;;;;;;;40.03;28.77;;;-6.40;44.60;;;;;;20627;6753;279129;-72
2022/12/18 04:31:41;;;;;;;39.87;28.80;;;-6.10;43.20;;;;;;20643;6754;306155;-72
2022/12/18 04:34:17;;;;;;;33.63;20.63;;;-5.90;42.40;;;;;;20902;6727;117388;-73
2022/12/18 04:36:53;;;;;;;45.37;31.43;;;-6.10;42.70;;;;;;20613;6756;281469;-73
2022/12/18 04:39:32;;;;;;;43.13;30.10;;;-6.10;42.10;;;;;;20618;6770;307383;-74
2022/12/18 04:42:04;;;;;;;40.53;28.65;;;-5.90;41.90;;;;;;20685;6755;308283;-73
2022/12/18 04:44:40;;;;;;;45.70;30.13;;;-5.80;41.40;;;;;;20589;6735;336184;-73
2022/12/18 04:47:16;;;;;;;34.63;20.83;;;-5.60;41.00;;;;;;20933;6720;117374;-74
2022/12/18 04:49:54;;;;;;;33.33;20.13;;;-5.80;41.20;;;;;;20964;6720;120271;-73
2022/12/18 04:52:28;;;;;;;43.70;28.80;;;-6.20;42.30;;;;;;20744;6720;280924;-73
2022/12/18 04:55:04;;;;;;;44.50;30.37;;;-6.20;42.30;;;;;;20562;6734;310493;-74
2022/12/18 04:57:39;;;;;;;43.90;30.23;;;-6.00;42.30;;;;;;20719;6723;335820;-74
2022/12/18 05:00:15;;;;;;;43.13;30.47;;;-5.80;41.50;;;;;;20636;6752;277258;-73
2022/12/18 05:02:51;;;;;;;40.42;29.67;;;-5.60;40.70;;;;;;20618;6754;339271;-74
2022/12/18 05:05:27;;;;;;;38.57;21.60;;;-5.70;40.60;;;;;;20797;6738;121811;-74
2022/12/18 05:08:03;;;;;;;35.37;19.33;;;-5.80;41.00;;;;;;20991;6724;118305;-74
2022/12/18 05:10:42;;;;;;;45.50;30.15;;;-6.20;42.10;;;;;;20775;6721;275188;-72
2022/12/18 05:13:18;;;;;;;50.17;31.90;;;-6.20;42.10;;;;;;20710;6726;276151;-76
2022/12/18 05:15:50;;;;;;;40.23;22.87;;;-6.10;42.00;;;;;;20667;6755;121012;-75
2022/12/18 05:18:27;;;;;;;47.50;29.87;;;-6.20;42.10;;;;;;20665;6726;309079;-74
2022/12/18 05:21:02;;;;;;;45.93;29.83;;;-6.20;42.10;;;;;;20626;6749;280175;-75
2022/12/18 05:23:38;;;;;;;45.38;30.45;;;-6.10;41.70;;;;;;20644;6747;336054;-74
2022/12/18 05:26:14;;;;;;;49.10;30.60;;;-5.90;41.50;;;;;;20704;6739;276774;-74
2022/12/18 05:28:53;;;;;;;52.97;32.25;;;-5.70;41.40;;;;;;20735;6741;306605;-75
2022/12/18 05:31:25;;;;;;;49.90;32.30;;;-5.60;41.10;;;;;;20764;6716;307554;-75
2022/12/18 05:34:01;;;;;;;52.17;32.10;;;-5.60;40.20;;;;;;20746;6716;306658;-75
2022/12/18 05:36:37;;;;;;;49.50;30.97;;;-5.60;40.10;;;;;;20760;6716;305414;-75
2022/12/18 05:39:13;;;;;;;47.70;30.92;;;-5.60;39.80;;;;;;20699;6730;303853;-73
2022/12/18 05:41:49;;;;;;;43.33;30.77;;;-5.60;39.80;;;;;;20715;6731;306585;-72
2022/12/18 05:44:25;;;;;;;37.40;21.57;;;-5.50;39.90;;;;;;20865;6731;117573;-74
2022/12/18 05:47:00;;;;;;;44.07;30.20;;;-5.70;40.80;;;;;;20625;6731;306254;-75
2022/12/18 05:49:36;;;;;;;44.95;30.25;;;-5.90;40.40;;;;;;20735;6720;303151;-73
2022/12/18 05:52:11;;;;;;;41.93;28.87;;;-5.80;40.00;;;;;;20731;6721;294314;-74
2022/12/18 05:54:47;;;;;;;31.90;21.73;;;-5.70;39.40;;;;;;20849;6721;118312;-73
2022/12/18 05:57:23;;;;;;;32.70;19.47;;;-5.90;39.30;;;;;;20857;6731;117489;-72
2022/12/18 05:59:58;;;;;;;31.27;17.70;;;-6.30;39.90;;;;;;20842;6764;120653;-73
2022/12/18 06:02:34;;;;;;;29.27;17.50;;;-6.60;40.70;;;;;;20881;6745;120632;-72
2022/12/18 06:05:12;;;;;;;40.97;28.03;;;-6.80;41.30;;;;;;20526;6756;308747;-72
2022/12/18 06:07:45;;;;;;;32.57;19.97;;;-6.80;41.80;;;;;;20979;6733;117269;-73
2022/12/18 06:10:24;;;;;;;41.67;28.20;;;-6.70;42.20;;;;;;20634;6754;308183;-74
2022/12/18 06:12:57;;;;;;;37.27;21.97;;;-6.80;41.60;;;;;;20913;6730;118087;-73
2022/12/18 06:15:33;;;;;;;39.85;27.13;;;-6.60;42.00;;;;;;20571;6733;290711;-74
2022/12/18 06:18:09;;;;;;;42.13;28.15;;;-6.70;41.90;;;;;;20707;6734;306946;-74
2022/12/18 06:20:45;;;;;;;39.75;27.42;;;-6.20;41.40;;;;;;20639;6735;307275;-74
2022/12/18 06:23:21;;;;;;;41.20;27.80;;;-6.20;40.70;;;;;;20595;6757;279295;-73
2022/12/18 06:26:19;;;;;;;38.27;27.20;;;-6.00;39.90;;;;;;20526;6750;298616;-73
2022/12/18 06:28:55;;;;;;;41.92;27.80;;;-5.90;38.90;;;;;;20549;6759;277596;-71
2022/12/18 06:31:30;;;;;;;36.38;26.87;;;-5.80;38.90;;;;;;20659;6758;336626;-74
2022/12/18 06:34:09;;;;;;;39.17;27.07;;;-5.80;38.30;;;;;;20651;6756;279475;-73
2022/12/18 06:36:42;;;;;;;40.67;27.63;;;-5.80;38.00;;;;;;20649;6741;307612;-75
2022/12/18 06:39:18;;;;;;;39.33;28.10;;;-5.80;38.00;;;;;;20605;6759;280628;-74
2022/12/18 06:41:53;;;;;;;36.47;22.00;;;-5.80;38.50;;;;;;20924;6732;118857;-73
2022/12/18 06:44:31;;;;;;;34.23;19.03;;;-6.30;39.90;;;;;;20850;6717;117918;-72
2022/12/18 06:47:06;;;;;;;39.87;27.33;;;-6.30;39.80;;;;;;20739;6715;308778;-74
2022/12/18 06:49:42;;;;;;;34.40;21.80;;;-6.50;39.80;;;;;;20961;6721;117882;-75
2022/12/18 06:52:18;;;;;;;44.17;29.43;;;-6.60;40.50;;;;;;20706;6730;306083;-72
2022/12/18 06:54:54;;;;;;;40.20;28.53;;;-6.60;40.10;;;;;;20618;6733;308220;-72
2022/12/18 06:57:30;;;;;;;36.00;21.47;;;-6.40;39.60;;;;;;21005;6703;117519;-73
2022/12/18 07:00:05;;;;;;;29.80;18.50;;;-6.50;39.80;;;;;;21016;6700;118525;-73
2022/12/18 07:02:41;;;;;;;41.28;27.00;;;-6.70;40.30;;;;;;20806;6700;276564;-73
2022/12/18 07:05:17;;;;;;;38.58;27.05;;;-6.80;40.70;;;;;;20677;6700;306664;-73
2022/12/18 07:07:52;;;;;;;36.97;26.67;;;-6.60;39.80;;;;;;20772;6715;307303;-73
2022/12/18 07:10:28;;;;;;;29.90;17.33;;;-6.50;39.10;;;;;;20990;6712;117875;-73
2022/12/18 07:13:03;;;;;;;27.63;16.93;;;-6.60;39.70;;;;;;20941;6712;118823;-72
2022/12/18 07:15:39;;;;;;;28.80;16.47;;;-6.90;39.90;;;;;;20745;6747;119917;-73
2022/12/18 07:18:14;;;;;;;41.70;26.63;;;-7.10;40.80;;;;;;20692;6740;307891;-73
2022/12/18 07:20:51;;;;;;;43.33;28.05;;;-7.00;41.00;;;;;;20750;6713;304400;-73
2022/12/18 07:23:32;;;;;;;41.25;27.62;;;-7.00;41.00;;;;;;20766;6713;306078;-74
2022/12/18 07:26:09;;;;;;;30.33;18.10;;;-6.70;40.60;;;;;;20809;6725;117616;-73
2022/12/18 07:28:44;;;;;;;39.70;26.27;;;-6.80;40.60;;;;;;20771;6714;307739;-73
2022/12/18 07:31:20;;;;;;;35.73;20.17;;;-6.80;40.70;;;;;;20937;6724;117467;-73
2022/12/18 07:33:55;;;;;;;30.60;17.53;;;-6.90;40.70;;;;;;20919;6729;118817;-72
2022/12/18 07:36:31;;;;;;;36.57;18.30;;;-7.00;41.30;;;;;;20897;6740;118524;-76
2022/12/18 07:39:07;;;;;;;42.33;26.83;;;-7.20;42.10;;;;;;20710;6723;308248;-74
2022/12/18 07:41:45;;;;;;;40.80;21.63;;;-7.20;42.20;;;;;;20942;6723;118556;-74
2022/12/18 07:44:18;;;;;;;32.47;18.87;;;-7.10;42.10;;;;;;20905;6726;117532;-74
2022/12/18 07:46:55;;;;;;;39.53;25.93;;;-7.20;42.40;;;;;;20793;6703;306030;-74
2022/12/18 07:49:31;;;;;;;37.73;25.43;;;-7.20;42.20;;;;;;20812;6703;334179;-75
2022/12/18 07:52:07;;;;;;;35.57;18.67;;;-6.90;41.40;;;;;;21023;6700;117116;-76
2022/12/18 07:54:42;;;;;;;34.33;19.10;;;-6.80;41.20;;;;;;20941;6703;119355;-75
2022/12/18 07:57:18;;;;;;;40.63;25.97;;;-7.00;41.90;;;;;;20724;6718;287985;-75
2022/12/18 07:59:54;;;;;;;44.23;28.37;;;-7.00;41.90;;;;;;20682;6736;277627;-74
2022/12/18 08:02:33;;;;;;;45.70;29.33;;;-6.60;41.20;;;;;;20708;6736;276828;-76
2022/12/18 08:05:09;;;;;;;35.10;20.40;;;-6.30;40.70;;;;;;20744;6743;119038;-74
2022/12/18 08:07:45;;;;;;;28.00;17.13;;;-6.40;40.60;;;;;;20883;6726;118426;-73
2022/12/18 08:10:20;;;;;;;30.87;17.27;;;-6.50;41.30;;;;;;20866;6741;117973;-76
2022/12/18 08:12:56;;;;;;;43.13;25.57;;;-6.60;42.10;;;;;;20615;6736;304340;-75
2022/12/18 08:15:32;;;;;;;42.60;28.45;;;-6.50;42.20;;;;;;20536;6741;340702;-73
2022/12/18 08:18:08;;;;;;;41.17;28.43;;;-5.60;40.90;;;;;;20664;6738;306262;-73
2022/12/18 08:20:44;;;;;;;38.67;21.67;;;-5.70;40.80;;;;;;20902;6730;119804;-74
2022/12/18 08:23:19;;;;;;;39.53;23.70;;;-5.50;40.90;;;;;;20862;6745;117958;-72
2022/12/18 08:25:55;;;;;;;34.97;20.00;;;-5.60;41.50;;;;;;20727;6757;117573;-73
2022/12/18 08:28:32;;;;;;;42.27;28.80;;;-5.50;42.50;;;;;;20650;6756;277210;-72
2022/12/18 08:31:08;;;;;;;48.90;28.93;;;-5.50;42.50;;;;;;20839;6757;117509;-71
2022/12/18 08:33:43;;;;;;;40.70;26.90;;;-5.30;42.80;;;;;;20670;6744;305870;-71
2022/12/18 08:36:19;;;;;;;34.07;20.30;;;-5.10;41.30;;;;;;20875;6752;117266;-73
2022/12/18 08:38:55;;;;;;;38.93;26.70;;;-4.80;40.60;;;;;;20664;6734;278105;-72
2022/12/18 08:41:31;;;;;;;40.53;26.53;;;-4.90;40.50;;;;;;20795;6717;305261;-75
2022/12/18 08:47:02;;;;;;;47.37;34.40;;;-4.60;39.50;;;;;;20752;6720;276254;-73
2022/12/18 08:49:38;;;;;;;41.80;23.73;;;-4.50;39.80;;;;;;20975;6719;117838;-72
2022/12/18 08:52:14;;;;;;;31.00;20.07;;;-4.50;39.80;;;;;;20962;6718;117415;-71
2022/12/18 08:54:49;;;;;;;29.60;17.50;;;-4.60;40.50;;;;;;20879;6721;117864;-72
2022/12/18 08:57:25;;;;;;;30.93;18.17;;;-4.80;41.20;;;;;;20967;6719;118781;-71
2022/12/18 09:00:00;;;;;;;40.43;26.50;;;-4.90;41.90;;;;;;20727;6727;306534;-72
2022/12/18 09:02:36;;;;;;;38.20;26.00;;;-4.80;41.60;;;;;;20745;6720;305854;-71
2022/12/18 09:05:12;;;;;;;34.07;20.50;;;-4.40;40.80;;;;;;20802;6729;124385;-73
2022/12/18 09:07:47;;;;;;;40.57;28.00;;;-4.20;42.00;;;;;;20773;6719;281046;-71
2022/12/18 09:10:24;;;;;;;39.20;27.45;;;-3.20;42.50;;;;;;20698;6747;309444;-72
2022/12/18 09:12:59;;;;;;;37.33;20.57;;;-3.30;42.40;;;;;;20861;6748;127106;-70
2022/12/18 09:15:35;;;;;;;34.50;18.87;;;-3.10;41.70;;;;;;20715;6772;120203;-72
2022/12/18 09:18:11;;;;;;;29.23;16.90;;;-3.30;42.80;;;;;;20963;6741;117731;-71
2022/12/18 09:20:52;;;;;;;41.87;27.93;;;-3.30;42.40;;;;;;20707;6735;300381;-73
2022/12/18 09:23:22;;;;;;;53.57;33.20;;;-3.20;42.50;;;;;;20915;6736;117642;-72
2022/12/18 09:25:59;;;;;;;43.50;30.63;;;-2.80;41.40;;;;;;20562;6734;306040;-73
2022/12/18 09:28:34;;;;;;;38.03;27.23;;;-2.90;41.20;;;;;;20743;6736;276730;-72
2022/12/18 09:31:10;;;;;;;41.17;30.20;;;-2.50;40.00;;;;;;20679;6733;278061;-72
2022/12/18 09:33:46;;;;;;;39.45;29.25;;;-1.90;38.90;;;;;;20699;6727;296085;-73
2022/12/18 09:36:23;;;;;;;37.60;22.83;;;-1.90;38.90;;;;;;20935;6732;117602;-73
2022/12/18 09:38:59;;;;;;;36.60;21.50;;;-2.10;40.10;;;;;;20914;6732;131507;-70
2022/12/18 09:41:55;;;;;;;32.47;19.03;;;-2.10;40.10;;;;;;20943;6725;119310;-71
2022/12/18 09:44:34;;;;;;;30.90;20.60;;;-2.40;41.40;;;;;;20878;6727;117259;-72
2022/12/18 09:47:09;;;;;;;42.23;29.53;;;-2.40;41.40;;;;;;20743;6714;305859;-74
2022/12/18 09:49:45;;;;;;;43.57;30.20;;;-2.20;41.40;;;;;;20719;6733;279841;-72
2022/12/18 09:52:27;;;;;;;38.33;29.03;;;-1.80;41.50;;;;;;20670;6739;278452;-72
2022/12/18 09:55:10;;;;;;;44.00;28.47;;;-1.40;40.50;;;;;;20786;6748;117930;-71
2022/12/18 09:57:46;;;;;;;46.80;33.03;;;-1.20;40.60;;;;;;20653;6803;307041;-71
2022/12/18 10:00:21;;;;;;;42.03;31.67;;;-1.20;40.60;;;;;;20719;6726;305760;-72
2022/12/18 10:03:03;;;;;;;44.03;32.40;;;-0.80;40.90;;;;;;20717;6726;276997;-72
2022/12/18 10:05:52;;;;;;;45.60;33.27;;;-0.50;40.40;;;;;;20591;6733;281836;-71
2022/12/18 10:08:34;;;;;;;49.47;35.10;;;-0.30;39.80;;;;;;20671;6737;306982;-72
2022/12/18 10:11:38;;;;;;;43.03;32.17;;;0.00;39.60;;;;;;20558;6821;324188;-72
2022/12/18 10:14:15;;;;;;;42.73;31.70;;;0.10;39.70;;;;;;20673;6744;309046;-71
2022/12/18 10:17:15;;;;;;;36.37;23.50;;;0.00;40.90;;;;;;20825;6759;119648;-71
2022/12/18 10:20:01;;;;;;;43.47;31.33;;;0.00;40.70;;;;;;20656;6750;305483;-71
2022/12/18 10:22:50;;;;;;;45.30;32.55;;;0.20;40.40;;;;;;20631;6763;306920;-72
2022/12/18 10:25:29;;;;;;;49.20;34.28;;;0.20;40.40;;;;;;20486;6758;279698;-73
2022/12/18 10:28:07;;;;;;;46.17;33.47;;;0.40;40.80;;;;;;20707;6728;288213;-72
2022/12/18 10:30:43;;;;;;;44.08;31.15;;;0.50;40.30;;;;;;20736;6723;308142;-71
2022/12/18 10:33:18;;;;;;;42.60;30.60;;;0.60;39.90;;;;;;20660;6738;335978;-72
2022/12/18 10:35:54;;;;;;;40.67;26.70;;;0.70;39.70;;;;;;20732;6738;119552;-72
2022/12/18 10:38:29;;;;;;;41.33;30.87;;;0.50;40.00;;;;;;20749;6741;292294;-71
2022/12/18 10:41:05;;;;;;;41.83;25.50;;;0.50;40.30;;;;;;20926;6737;119042;-72
2022/12/18 10:43:41;;;;;;;38.80;23.50;;;0.40;40.80;;;;;;20900;6735;117100;-72
2022/12/18 10:46:16;;;;;;;43.47;30.60;;;0.20;41.20;;;;;;20750;6724;300762;-72
2022/12/18 10:48:55;;;;;;;44.30;32.03;;;0.20;41.70;;;;;;20725;6732;305172;-72
2022/12/18 10:51:34;;;;;;;41.03;31.17;;;0.40;41.30;;;;;;20744;6723;277647;-72
2022/12/18 10:54:16;;;;;;;37.93;24.90;;;0.70;41.00;;;;;;20853;6743;119709;-72
2022/12/18 10:56:52;;;;;;;41.03;29.43;;;0.60;41.30;;;;;;20688;6736;277239;-71
2022/12/18 10:59:27;;;;;;;38.80;25.40;;;0.60;41.30;;;;;;20959;6760;119435;-72
2022/12/18 11:02:03;;;;;;;31.97;23.33;;;0.60;41.50;;;;;;20930;6730;117566;-72
2022/12/18 11:04:39;;;;;;;38.47;29.03;;;0.50;42.10;;;;;;20598;6783;309149;-71
2022/12/18 11:07:15;;;;;;;35.13;23.20;;;0.50;41.80;;;;;;20922;6733;120821;-72
2022/12/18 11:09:50;;;;;;;39.73;23.20;;;0.50;42.00;;;;;;20951;6727;117339;-72
2022/12/18 11:12:26;;;;;;;34.73;22.40;;;0.40;42.40;;;;;;20924;6731;120322;-71
2022/12/18 11:15:02;;;;;;;42.33;32.37;;;0.40;43.20;;;;;;20553;6732;311680;-72
2022/12/18 11:17:38;;;;;;;42.20;28.27;;;0.40;43.20;;;;;;21001;6713;120178;-71
2022/12/18 11:20:20;;;;;;;46.47;32.27;;;0.60;43.50;;;;;;20686;6729;308996;-72
2022/12/18 11:22:55;;;;;;;53.20;30.53;;;0.80;43.10;;;;;;20895;6740;119169;-72
2022/12/18 11:25:31;;;;;;;52.87;37.80;;;0.90;43.00;;;;;;20572;6743;309017;-72
2022/12/18 11:28:27;;;;;;;54.43;39.80;;;1.30;41.80;;;;;;20720;6746;308628;-72
2022/12/18 11:31:09;;;;;;;49.03;37.87;;;1.30;41.80;;;;;;20647;6729;278799;-72
2022/12/18 11:34:05;;;;;;;43.63;28.23;;;1.60;41.20;;;;;;20844;6752;117206;-72
2022/12/18 11:36:41;;;;;;;43.43;32.63;;;1.60;41.40;;;;;;20675;6746;284494;-72
2022/12/18 11:39:36;;;;;;;43.30;33.77;;;1.60;41.20;;;;;;20673;6742;307480;-72
2022/12/18 11:42:21;;;;;;;46.78;35.38;;;1.80;40.80;;;;;;20658;6749;336413;-72
2022/12/18 11:45:00;;;;;;;43.73;29.10;;;2.00;40.60;;;;;;20700;6760;118016;-72
2022/12/18 11:47:39;;;;;;;39.33;24.83;;;1.90;41.20;;;;;;20871;6751;119426;-72
2022/12/18 11:50:17;;;;;;;34.93;22.90;;;1.60;41.80;;;;;;20900;6746;117707;-72
2022/12/18 11:52:53;;;;;;;42.27;26.27;;;1.40;42.40;;;;;;20734;6807;119376;-72
2022/12/18 11:55:45;;;;;;;34.40;22.50;;;1.00;44.00;;;;;;20784;6742;118756;-72
2022/12/18 11:58:24;;;;;;;39.87;30.40;;;1.00;43.30;;;;;;20683;6745;275753;-72
2022/12/18 12:01:10;;;;;;;39.13;31.20;;;1.20;43.40;;;;;;20739;6735;307091;-71
2022/12/18 12:04:15;;;;;;;44.00;33.23;;;1.50;42.70;;;;;;19626;7087;317885;-72
2022/12/18 12:07:14;;;;;;;42.13;32.50;;;1.80;43.10;;;;;;20647;6746;291505;-71
2022/12/18 12:09:56;;;;;;;39.00;26.30;;;1.90;42.20;;;;;;20967;6733;117002;-72
2022/12/18 12:12:45;;;;;;;37.53;25.23;;;1.70;42.40;;;;;;20880;6749;119395;-71
2022/12/18 12:15:10;;;;;;;41.53;27.03;;;1.40;43.10;;;;;;20804;6748;117979;-72
2022/12/18 12:18:05;;;;;;;39.10;24.07;;;1.10;43.60;;;;;;20860;6763;121039;-71
2022/12/18 12:21:04;;;;;;;52.93;37.93;;;0.90;44.10;;;;;;20663;6758;277300;-72
2022/12/18 12:23:56;;;;;;;48.07;31.47;;;1.00;45.00;;;;;;20897;6742;117197;-71
2022/12/18 12:26:41;;;;;;;45.83;28.90;;;0.90;44.90;;;;;;20937;6726;117241;-72
2022/12/18 12:29:28;;;;;;;45.37;29.03;;;0.60;45.70;;;;;;20306;6778;120117;-70
2022/12/18 12:32:07;;;;;;;51.93;38.43;;;0.60;45.70;;;;;;20705;6736;311611;-72
2022/12/18 12:35:06;;;;;;;44.10;30.07;;;0.70;46.10;;;;;;20887;6725;118408;-72
2022/12/18 12:38:02;;;;;;;45.55;33.83;;;0.70;46.10;;;;;;20688;6743;330360;-72
2022/12/18 12:40:37;;;;;;;47.23;31.60;;;0.90;45.70;;;;;;20870;6755;117252;-72
2022/12/18 12:43:16;;;;;;;45.07;28.43;;;0.90;45.50;;;;;;20930;6724;117075;-72
2022/12/18 12:46:05;;;;;;;41.53;30.23;;;0.80;45.80;;;;;;20559;6735;280624;-71
2022/12/18 12:48:44;;;;;;;49.43;38.27;;;0.90;46.20;;;;;;20717;6734;278983;-72
2022/12/18 12:51:20;;;;;;;39.65;32.35;;;1.50;44.80;;;;;;20653;6746;306879;-70
2022/12/18 12:53:55;;;;;;;38.77;29.83;;;1.60;44.90;;;;;;20699;6732;306702;-71
2022/12/18 12:56:44;;;;;;;39.77;25.23;;;1.80;44.10;;;;;;20877;6749;117984;-71
2022/12/18 12:59:33;;;;;;;36.83;24.23;;;1.70;44.00;;;;;;21025;6716;117676;-72
2022/12/18 13:02:18;;;;;;;43.17;31.47;;;1.40;44.40;;;;;;20743;6720;296236;-72
2022/12/18 13:05:17;;;;;;;36.60;25.47;;;1.40;44.20;;;;;;20860;6725;119658;-72
2022/12/18 13:07:52;;;;;;;40.40;30.13;;;1.30;44.20;;;;;;20695;6726;296325;-72
2022/12/18 13:10:31;;;;;;;42.37;27.33;;;1.30;44.20;;;;;;20826;6758;119817;-71
2022/12/18 13:13:07;;;;;;;37.30;24.93;;;1.30;44.30;;;;;;20970;6730;116880;-73
2022/12/18 13:15:43;;;;;;;46.20;29.83;;;1.10;44.80;;;;;;20760;6748;117804;-71
2022/12/18 13:18:18;;;;;;;43.47;26.10;;;0.90;45.20;;;;;;20951;6726;117303;-71
2022/12/18 13:20:54;;;;;;;47.53;34.97;;;0.90;45.10;;;;;;20714;6726;278067;-71